Terminal Aerodrome Forecast
Issued by NWS

Home | Current Version | Previous Version | Text Only | Print | Product List | Glossary On
Versions: 1 2 3 4 5 6 7 8 9 10 11 12 13 14
000
FTUS44 KLZK 211258 AAA
TAFHRO
TAF AMD
KHRO 211258Z 2113/2212 15009G15KT P6SM BKN025 BKN250 WS020/18040KT
     FM211500 16014G22KT P6SM SCT025 BKN050 BKN250
     FM211900 17014G22KT P6SM VCSH SCT030 BKN060 OVC100
     FM220000 17010G20KT P6SM VCTS BKN050CB OVC100
      TEMPO 2203/2206 VRB15G35KT 3SM TSRA OVC030CB
     FM220600 21010G20KT 5SM -TSRA BKN020 OVC050CB
      TEMPO 2206/2209 32012G22KT 2SM TSRA OVC030CB=

USA.gov is the U.S. government's official web portal to all federal, state and local government web resources and services.